sensor_id;sensor_type;location;lat;lon;timestamp;P1;durP1;ratioP1;P2;durP2;ratioP2
39356;SDS011;25077;50.302;18.996;2022-07-09T00:00:50;8.27;;;4.10;;
39356;SDS011;25077;50.302;18.996;2022-07-09T00:03:53;11.10;;;4.33;;
39356;SDS011;25077;50.302;18.996;2022-07-09T00:06:55;10.57;;;5.23;;
39356;SDS011;25077;50.302;18.996;2022-07-09T00:09:58;8.07;;;4.50;;
39356;SDS011;25077;50.302;18.996;2022-07-09T00:13:00;11.23;;;3.80;;
39356;SDS011;25077;50.302;18.996;2022-07-09T00:16:04;6.83;;;4.17;;
39356;SDS011;25077;50.302;18.996;2022-07-09T00:19:06;7.70;;;3.83;;
39356;SDS011;25077;50.302;18.996;2022-07-09T00:22:08;10.07;;;4.00;;
39356;SDS011;25077;50.302;18.996;2022-07-09T00:25:10;10.67;;;4.43;;
39356;SDS011;25077;50.302;18.996;2022-07-09T00:28:12;8.17;;;3.17;;
39356;SDS011;25077;50.302;18.996;2022-07-09T00:31:15;9.20;;;3.00;;
39356;SDS011;25077;50.302;18.996;2022-07-09T00:34:17;7.87;;;2.93;;
39356;SDS011;25077;50.302;18.996;2022-07-09T00:37:19;6.33;;;2.77;;
39356;SDS011;25077;50.302;18.996;2022-07-09T00:40:21;8.13;;;2.70;;
39356;SDS011;25077;50.302;18.996;2022-07-09T00:43:23;6.67;;;2.43;;
39356;SDS011;25077;50.302;18.996;2022-07-09T00:46:26;6.30;;;2.67;;
39356;SDS011;25077;50.302;18.996;2022-07-09T00:49:29;6.07;;;2.80;;
39356;SDS011;25077;50.302;18.996;2022-07-09T00:52:31;7.50;;;2.73;;
39356;SDS011;25077;50.302;18.996;2022-07-09T00:55:36;9.47;;;2.90;;
39356;SDS011;25077;50.302;18.996;2022-07-09T00:58:38;7.20;;;2.83;;
39356;SDS011;25077;50.302;18.996;2022-07-09T01:01:42;3.70;;;2.27;;
39356;SDS011;25077;50.302;18.996;2022-07-09T01:04:44;6.77;;;2.67;;
39356;SDS011;25077;50.302;18.996;2022-07-09T01:07:46;6.37;;;2.90;;
39356;SDS011;25077;50.302;18.996;2022-07-09T01:10:48;5.80;;;2.43;;
39356;SDS011;25077;50.302;18.996;2022-07-09T01:13:52;5.30;;;2.47;;
39356;SDS011;25077;50.302;18.996;2022-07-09T01:16:59;12.13;;;2.57;;
39356;SDS011;25077;50.302;18.996;2022-07-09T01:20:02;6.90;;;2.37;;
39356;SDS011;25077;50.302;18.996;2022-07-09T01:23:06;9.87;;;2.77;;
39356;SDS011;25077;50.302;18.996;2022-07-09T01:26:08;8.90;;;2.70;;
39356;SDS011;25077;50.302;18.996;2022-07-09T01:29:10;9.77;;;2.80;;
39356;SDS011;25077;50.302;18.996;2022-07-09T01:32:13;11.37;;;3.30;;
39356;SDS011;25077;50.302;18.996;2022-07-09T01:35:15;7.97;;;3.00;;
39356;SDS011;25077;50.302;18.996;2022-07-09T01:38:19;7.33;;;2.77;;
39356;SDS011;25077;50.302;18.996;2022-07-09T01:41:21;6.83;;;3.07;;
39356;SDS011;25077;50.302;18.996;2022-07-09T01:44:23;7.00;;;2.80;;
39356;SDS011;25077;50.302;18.996;2022-07-09T01:47:25;11.57;;;3.30;;
39356;SDS011;25077;50.302;18.996;2022-07-09T01:50:27;8.97;;;3.47;;
39356;SDS011;25077;50.302;18.996;2022-07-09T01:53:30;12.13;;;3.47;;
39356;SDS011;25077;50.302;18.996;2022-07-09T01:56:34;11.10;;;3.30;;
39356;SDS011;25077;50.302;18.996;2022-07-09T01:59:36;14.27;;;3.80;;
39356;SDS011;25077;50.302;18.996;2022-07-09T02:02:38;9.43;;;3.90;;
39356;SDS011;25077;50.302;18.996;2022-07-09T02:05:40;10.83;;;3.43;;
39356;SDS011;25077;50.302;18.996;2022-07-09T02:08:43;14.53;;;3.70;;
39356;SDS011;25077;50.302;18.996;2022-07-09T02:11:45;10.60;;;2.93;;
39356;SDS011;25077;50.302;18.996;2022-07-09T02:14:47;10.47;;;2.77;;
39356;SDS011;25077;50.302;18.996;2022-07-09T02:17:49;10.10;;;3.13;;
39356;SDS011;25077;50.302;18.996;2022-07-09T02:20:51;9.63;;;2.83;;
39356;SDS011;25077;50.302;18.996;2022-07-09T02:23:57;6.47;;;2.80;;
39356;SDS011;25077;50.302;18.996;2022-07-09T02:26:59;11.37;;;3.23;;
39356;SDS011;25077;50.302;18.996;2022-07-09T02:30:02;12.33;;;3.67;;
39356;SDS011;25077;50.302;18.996;2022-07-09T02:33:04;9.27;;;3.07;;
39356;SDS011;25077;50.302;18.996;2022-07-09T02:36:06;12.87;;;3.20;;
39356;SDS011;25077;50.302;18.996;2022-07-09T02:39:09;9.03;;;3.37;;
39356;SDS011;25077;50.302;18.996;2022-07-09T02:42:11;8.77;;;2.80;;
39356;SDS011;25077;50.302;18.996;2022-07-09T02:45:13;6.67;;;2.77;;
39356;SDS011;25077;50.302;18.996;2022-07-09T02:48:15;7.30;;;2.47;;
39356;SDS011;25077;50.302;18.996;2022-07-09T02:51:17;5.47;;;2.00;;
39356;SDS011;25077;50.302;18.996;2022-07-09T02:54:20;5.70;;;2.40;;
39356;SDS011;25077;50.302;18.996;2022-07-09T02:57:22;8.37;;;2.50;;
39356;SDS011;25077;50.302;18.996;2022-07-09T03:00:24;7.17;;;2.20;;
39356;SDS011;25077;50.302;18.996;2022-07-09T03:03:27;8.33;;;2.20;;
39356;SDS011;25077;50.302;18.996;2022-07-09T03:06:28;9.30;;;2.40;;
39356;SDS011;25077;50.302;18.996;2022-07-09T03:09:32;6.50;;;1.83;;
39356;SDS011;25077;50.302;18.996;2022-07-09T03:12:34;7.37;;;2.37;;
39356;SDS011;25077;50.302;18.996;2022-07-09T03:15:36;7.37;;;2.40;;
39356;SDS011;25077;50.302;18.996;2022-07-09T03:18:38;3.80;;;1.70;;
39356;SDS011;25077;50.302;18.996;2022-07-09T03:21:40;7.87;;;2.10;;
39356;SDS011;25077;50.302;18.996;2022-07-09T03:24:43;6.60;;;1.97;;
39356;SDS011;25077;50.302;18.996;2022-07-09T03:27:45;11.53;;;2.57;;
39356;SDS011;25077;50.302;18.996;2022-07-09T03:30:47;6.10;;;2.23;;
39356;SDS011;25077;50.302;18.996;2022-07-09T03:33:49;3.53;;;1.47;;
39356;SDS011;25077;50.302;18.996;2022-07-09T03:36:53;5.57;;;1.90;;
39356;SDS011;25077;50.302;18.996;2022-07-09T03:39:57;8.80;;;2.30;;
39356;SDS011;25077;50.302;18.996;2022-07-09T03:42:59;6.33;;;2.40;;
39356;SDS011;25077;50.302;18.996;2022-07-09T03:46:01;7.70;;;1.97;;
39356;SDS011;25077;50.302;18.996;2022-07-09T03:49:03;7.27;;;2.23;;
39356;SDS011;25077;50.302;18.996;2022-07-09T03:52:05;8.10;;;2.00;;
39356;SDS011;25077;50.302;18.996;2022-07-09T03:55:09;6.23;;;1.83;;
39356;SDS011;25077;50.302;18.996;2022-07-09T03:58:12;5.97;;;2.13;;
39356;SDS011;25077;50.302;18.996;2022-07-09T04:01:14;8.73;;;2.40;;
39356;SDS011;25077;50.302;18.996;2022-07-09T04:04:16;10.33;;;2.43;;
39356;SDS011;25077;50.302;18.996;2022-07-09T04:07:18;7.93;;;3.10;;
39356;SDS011;25077;50.302;18.996;2022-07-09T04:10:22;9.40;;;3.20;;
39356;SDS011;25077;50.302;18.996;2022-07-09T04:13:24;8.77;;;2.50;;
39356;SDS011;25077;50.302;18.996;2022-07-09T04:16:26;11.43;;;2.90;;
39356;SDS011;25077;50.302;18.996;2022-07-09T04:19:28;7.37;;;2.73;;
39356;SDS011;25077;50.302;18.996;2022-07-09T04:22:31;8.73;;;2.60;;
39356;SDS011;25077;50.302;18.996;2022-07-09T04:25:34;8.87;;;2.37;;
39356;SDS011;25077;50.302;18.996;2022-07-09T04:28:36;6.83;;;2.20;;
39356;SDS011;25077;50.302;18.996;2022-07-09T04:31:38;7.70;;;2.50;;
39356;SDS011;25077;50.302;18.996;2022-07-09T04:34:40;7.83;;;2.40;;
39356;SDS011;25077;50.302;18.996;2022-07-09T04:37:43;6.33;;;2.77;;
39356;SDS011;25077;50.302;18.996;2022-07-09T04:40:47;10.73;;;3.13;;
39356;SDS011;25077;50.302;18.996;2022-07-09T04:43:49;12.00;;;4.93;;
39356;SDS011;25077;50.302;18.996;2022-07-09T04:46:51;15.07;;;4.37;;
39356;SDS011;25077;50.302;18.996;2022-07-09T04:49:53;13.67;;;4.27;;
39356;SDS011;25077;50.302;18.996;2022-07-09T04:52:55;13.40;;;3.30;;
39356;SDS011;25077;50.302;18.996;2022-07-09T04:55:59;9.40;;;3.60;;
39356;SDS011;25077;50.302;18.996;2022-07-09T04:59:01;8.60;;;5.03;;
39356;SDS011;25077;50.302;18.996;2022-07-09T05:02:03;10.93;;;4.97;;
39356;SDS011;25077;50.302;18.996;2022-07-09T05:05:06;12.90;;;5.10;;
39356;SDS011;25077;50.302;18.996;2022-07-09T05:08:09;9.37;;;3.60;;
39356;SDS011;25077;50.302;18.996;2022-07-09T05:11:12;7.37;;;3.13;;
39356;SDS011;25077;50.302;18.996;2022-07-09T05:14:14;8.23;;;2.77;;
39356;SDS011;25077;50.302;18.996;2022-07-09T05:17:17;10.83;;;3.67;;
39356;SDS011;25077;50.302;18.996;2022-07-09T05:20:19;14.30;;;4.30;;
39356;SDS011;25077;50.302;18.996;2022-07-09T05:23:20;12.57;;;3.60;;
39356;SDS011;25077;50.302;18.996;2022-07-09T05:26:24;9.77;;;3.33;;
39356;SDS011;25077;50.302;18.996;2022-07-09T05:29:26;7.73;;;2.50;;
39356;SDS011;25077;50.302;18.996;2022-07-09T05:32:28;5.53;;;2.13;;
39356;SDS011;25077;50.302;18.996;2022-07-09T05:35:30;9.03;;;2.37;;
39356;SDS011;25077;50.302;18.996;2022-07-09T05:38:32;7.77;;;3.00;;
39356;SDS011;25077;50.302;18.996;2022-07-09T05:41:35;13.23;;;4.33;;
39356;SDS011;25077;50.302;18.996;2022-07-09T05:44:37;18.80;;;8.80;;
39356;SDS011;25077;50.302;18.996;2022-07-09T05:47:39;17.37;;;5.77;;
39356;SDS011;25077;50.302;18.996;2022-07-09T05:50:42;12.30;;;4.27;;
39356;SDS011;25077;50.302;18.996;2022-07-09T05:53:44;8.37;;;3.43;;
39356;SDS011;25077;50.302;18.996;2022-07-09T05:56:47;11.10;;;3.63;;
39356;SDS011;25077;50.302;18.996;2022-07-09T05:59:49;11.17;;;3.20;;
39356;SDS011;25077;50.302;18.996;2022-07-09T06:02:52;11.57;;;2.83;;
39356;SDS011;25077;50.302;18.996;2022-07-09T06:05:54;12.03;;;4.23;;
39356;SDS011;25077;50.302;18.996;2022-07-09T06:08:57;15.63;;;4.17;;
39356;SDS011;25077;50.302;18.996;2022-07-09T06:12:00;12.70;;;4.40;;
39356;SDS011;25077;50.302;18.996;2022-07-09T06:15:02;13.50;;;4.80;;
39356;SDS011;25077;50.302;18.996;2022-07-09T06:18:04;10.60;;;3.90;;
39356;SDS011;25077;50.302;18.996;2022-07-09T06:21:06;11.63;;;5.00;;
39356;SDS011;25077;50.302;18.996;2022-07-09T06:24:08;15.33;;;5.97;;
39356;SDS011;25077;50.302;18.996;2022-07-09T06:27:11;11.53;;;6.30;;
39356;SDS011;25077;50.302;18.996;2022-07-09T06:30:13;8.30;;;4.13;;
39356;SDS011;25077;50.302;18.996;2022-07-09T06:33:16;7.17;;;3.00;;
39356;SDS011;25077;50.302;18.996;2022-07-09T06:36:18;7.37;;;2.97;;
39356;SDS011;25077;50.302;18.996;2022-07-09T06:39:20;7.03;;;3.40;;
39356;SDS011;25077;50.302;18.996;2022-07-09T06:42:40;12.90;;;5.10;;
39356;SDS011;25077;50.302;18.996;2022-07-09T06:45:52;13.93;;;2.90;;
39356;SDS011;25077;50.302;18.996;2022-07-09T06:48:54;6.73;;;2.73;;
39356;SDS011;25077;50.302;18.996;2022-07-09T06:51:56;8.83;;;3.37;;
39356;SDS011;25077;50.302;18.996;2022-07-09T06:54:58;7.33;;;2.63;;
39356;SDS011;25077;50.302;18.996;2022-07-09T06:58:02;10.53;;;3.00;;
39356;SDS011;25077;50.302;18.996;2022-07-09T07:01:04;9.30;;;3.83;;
39356;SDS011;25077;50.302;18.996;2022-07-09T07:04:06;9.83;;;4.03;;
39356;SDS011;25077;50.302;18.996;2022-07-09T07:07:08;10.73;;;4.03;;
39356;SDS011;25077;50.302;18.996;2022-07-09T07:10:10;10.83;;;3.00;;
39356;SDS011;25077;50.302;18.996;2022-07-09T07:13:13;5.30;;;3.03;;
39356;SDS011;25077;50.302;18.996;2022-07-09T07:16:15;9.70;;;3.10;;
39356;SDS011;25077;50.302;18.996;2022-07-09T07:19:17;9.33;;;2.47;;
39356;SDS011;25077;50.302;18.996;2022-07-09T07:22:21;5.50;;;2.53;;
39356;SDS011;25077;50.302;18.996;2022-07-09T07:25:23;7.90;;;2.53;;
39356;SDS011;25077;50.302;18.996;2022-07-09T07:28:28;11.57;;;3.67;;
39356;SDS011;25077;50.302;18.996;2022-07-09T07:31:30;8.33;;;2.60;;
39356;SDS011;25077;50.302;18.996;2022-07-09T07:34:32;6.90;;;2.50;;
39356;SDS011;25077;50.302;18.996;2022-07-09T07:37:34;7.83;;;2.40;;
39356;SDS011;25077;50.302;18.996;2022-07-09T07:40:36;5.40;;;2.40;;
39356;SDS011;25077;50.302;18.996;2022-07-09T07:43:40;8.50;;;2.73;;
39356;SDS011;25077;50.302;18.996;2022-07-09T07:46:42;6.73;;;3.03;;
39356;SDS011;25077;50.302;18.996;2022-07-09T07:49:44;6.27;;;3.70;;
39356;SDS011;25077;50.302;18.996;2022-07-09T07:52:46;11.10;;;4.27;;
39356;SDS011;25077;50.302;18.996;2022-07-09T07:55:48;7.27;;;4.07;;
39356;SDS011;25077;50.302;18.996;2022-07-09T07:58:51;7.50;;;4.30;;
39356;SDS011;25077;50.302;18.996;2022-07-09T08:01:53;10.30;;;3.80;;
39356;SDS011;25077;50.302;18.996;2022-07-09T08:04:55;7.10;;;4.20;;
39356;SDS011;25077;50.302;18.996;2022-07-09T08:07:57;7.53;;;4.13;;
39356;SDS011;25077;50.302;18.996;2022-07-09T08:10:59;6.07;;;3.23;;
39356;SDS011;25077;50.302;18.996;2022-07-09T08:14:04;7.63;;;4.20;;
39356;SDS011;25077;50.302;18.996;2022-07-09T08:17:07;6.70;;;4.37;;
39356;SDS011;25077;50.302;18.996;2022-07-09T08:20:10;6.13;;;4.10;;
39356;SDS011;25077;50.302;18.996;2022-07-09T08:23:12;6.13;;;3.63;;
39356;SDS011;25077;50.302;18.996;2022-07-09T08:26:14;8.23;;;3.07;;
39356;SDS011;25077;50.302;18.996;2022-07-09T08:29:17;8.97;;;3.20;;
39356;SDS011;25077;50.302;18.996;2022-07-09T08:32:19;7.90;;;2.87;;
39356;SDS011;25077;50.302;18.996;2022-07-09T08:35:21;7.97;;;2.80;;
39356;SDS011;25077;50.302;18.996;2022-07-09T08:38:25;5.97;;;2.53;;
39356;SDS011;25077;50.302;18.996;2022-07-09T08:41:28;4.90;;;3.20;;
39356;SDS011;25077;50.302;18.996;2022-07-09T08:44:32;5.60;;;3.20;;
39356;SDS011;25077;50.302;18.996;2022-07-09T08:47:37;8.43;;;3.07;;
39356;SDS011;25077;50.302;18.996;2022-07-09T08:50:40;6.10;;;2.50;;
39356;SDS011;25077;50.302;18.996;2022-07-09T08:53:43;5.70;;;2.20;;
39356;SDS011;25077;50.302;18.996;2022-07-09T08:56:46;4.97;;;2.30;;
39356;SDS011;25077;50.302;18.996;2022-07-09T08:59:49;7.10;;;4.07;;
39356;SDS011;25077;50.302;18.996;2022-07-09T09:02:51;3.47;;;2.47;;
39356;SDS011;25077;50.302;18.996;2022-07-09T09:05:59;5.20;;;2.20;;
39356;SDS011;25077;50.302;18.996;2022-07-09T09:09:03;5.73;;;2.83;;
39356;SDS011;25077;50.302;18.996;2022-07-09T09:12:05;3.63;;;2.00;;
39356;SDS011;25077;50.302;18.996;2022-07-09T09:15:09;5.63;;;2.27;;
39356;SDS011;25077;50.302;18.996;2022-07-09T09:18:12;7.23;;;3.87;;
39356;SDS011;25077;50.302;18.996;2022-07-09T09:21:15;7.23;;;2.73;;
39356;SDS011;25077;50.302;18.996;2022-07-09T09:24:22;3.83;;;1.70;;
39356;SDS011;25077;50.302;18.996;2022-07-09T09:27:28;4.83;;;1.60;;
39356;SDS011;25077;50.302;18.996;2022-07-09T09:30:39;9.90;;;2.37;;
39356;SDS011;25077;50.302;18.996;2022-07-09T09:33:43;7.37;;;1.47;;
39356;SDS011;25077;50.302;18.996;2022-07-09T09:36:46;6.20;;;1.60;;
39356;SDS011;25077;50.302;18.996;2022-07-09T09:39:49;4.87;;;1.70;;
39356;SDS011;25077;50.302;18.996;2022-07-09T09:42:52;3.17;;;1.83;;
39356;SDS011;25077;50.302;18.996;2022-07-09T09:45:56;6.87;;;2.43;;
39356;SDS011;25077;50.302;18.996;2022-07-09T09:49:03;3.60;;;1.87;;
39356;SDS011;25077;50.302;18.996;2022-07-09T09:52:08;3.60;;;2.00;;
39356;SDS011;25077;50.302;18.996;2022-07-09T09:55:11;3.60;;;1.80;;
39356;SDS011;25077;50.302;18.996;2022-07-09T09:58:14;5.57;;;2.03;;
39356;SDS011;25077;50.302;18.996;2022-07-09T10:01:18;6.30;;;1.90;;
39356;SDS011;25077;50.302;18.996;2022-07-09T10:04:20;4.13;;;1.80;;
39356;SDS011;25077;50.302;18.996;2022-07-09T10:07:22;3.87;;;1.40;;
39356;SDS011;25077;50.302;18.996;2022-07-09T10:10:24;7.10;;;1.87;;
39356;SDS011;25077;50.302;18.996;2022-07-09T10:13:26;2.63;;;1.33;;
39356;SDS011;25077;50.302;18.996;2022-07-09T10:16:36;2.63;;;1.43;;
39356;SDS011;25077;50.302;18.996;2022-07-09T10:19:50;4.37;;;1.30;;
39356;SDS011;25077;50.302;18.996;2022-07-09T10:22:53;5.20;;;1.60;;
39356;SDS011;25077;50.302;18.996;2022-07-09T10:25:55;18.27;;;1.60;;
39356;SDS011;25077;50.302;18.996;2022-07-09T10:28:57;4.43;;;1.30;;
39356;SDS011;25077;50.302;18.996;2022-07-09T10:32:01;5.03;;;1.57;;
39356;SDS011;25077;50.302;18.996;2022-07-09T10:35:04;4.13;;;1.47;;
39356;SDS011;25077;50.302;18.996;2022-07-09T10:38:07;8.67;;;2.23;;
39356;SDS011;25077;50.302;18.996;2022-07-09T10:41:09;4.37;;;1.50;;
39356;SDS011;25077;50.302;18.996;2022-07-09T10:44:25;3.20;;;1.40;;
39356;SDS011;25077;50.302;18.996;2022-07-09T10:47:37;3.00;;;1.40;;
39356;SDS011;25077;50.302;18.996;2022-07-09T10:50:40;4.57;;;1.50;;
39356;SDS011;25077;50.302;18.996;2022-07-09T10:53:42;2.40;;;1.00;;
39356;SDS011;25077;50.302;18.996;2022-07-09T10:56:44;6.07;;;2.40;;
39356;SDS011;25077;50.302;18.996;2022-07-09T10:59:48;3.83;;;1.13;;
39356;SDS011;25077;50.302;18.996;2022-07-09T11:02:52;4.23;;;1.87;;
39356;SDS011;25077;50.302;18.996;2022-07-09T11:05:55;1.50;;;0.90;;
39356;SDS011;25077;50.302;18.996;2022-07-09T11:08:57;7.70;;;1.93;;
39356;SDS011;25077;50.302;18.996;2022-07-09T11:11:59;2.33;;;1.00;;
39356;SDS011;25077;50.302;18.996;2022-07-09T11:15:03;2.97;;;1.30;;
39356;SDS011;25077;50.302;18.996;2022-07-09T11:18:07;1.37;;;1.17;;
39356;SDS011;25077;50.302;18.996;2022-07-09T11:21:10;5.37;;;1.27;;
39356;SDS011;25077;50.302;18.996;2022-07-09T11:24:12;2.23;;;1.20;;
39356;SDS011;25077;50.302;18.996;2022-07-09T11:27:15;6.68;;;1.65;;
39356;SDS011;25077;50.302;18.996;2022-07-09T11:30:17;7.63;;;1.60;;
39356;SDS011;25077;50.302;18.996;2022-07-09T11:33:21;3.63;;;1.02;;
39356;SDS011;25077;50.302;18.996;2022-07-09T11:36:23;5.57;;;1.15;;
39356;SDS011;25077;50.302;18.996;2022-07-09T11:39:26;4.00;;;1.20;;
39356;SDS011;25077;50.302;18.996;2022-07-09T11:42:28;4.13;;;1.83;;
39356;SDS011;25077;50.302;18.996;2022-07-09T11:45:30;4.35;;;1.45;;
39356;SDS011;25077;50.302;18.996;2022-07-09T11:48:34;4.55;;;1.23;;
39356;SDS011;25077;50.302;18.996;2022-07-09T11:51:35;2.58;;;1.30;;
39356;SDS011;25077;50.302;18.996;2022-07-09T11:54:40;3.35;;;1.40;;
39356;SDS011;25077;50.302;18.996;2022-07-09T11:57:50;2.10;;;1.08;;
39356;SDS011;25077;50.302;18.996;2022-07-09T12:00:54;3.65;;;1.35;;
39356;SDS011;25077;50.302;18.996;2022-07-09T12:03:57;1.90;;;0.95;;
39356;SDS011;25077;50.302;18.996;2022-07-09T12:06:59;4.70;;;1.70;;
39356;SDS011;25077;50.302;18.996;2022-07-09T12:10:02;1.92;;;0.98;;
39356;SDS011;25077;50.302;18.996;2022-07-09T12:13:07;4.82;;;1.05;;
39356;SDS011;25077;50.302;18.996;2022-07-09T12:16:10;2.25;;;1.00;;
39356;SDS011;25077;50.302;18.996;2022-07-09T12:19:13;4.78;;;1.33;;
39356;SDS011;25077;50.302;18.996;2022-07-09T12:22:15;4.45;;;1.60;;
39356;SDS011;25077;50.302;18.996;2022-07-09T12:25:17;5.45;;;1.23;;
39356;SDS011;25077;50.302;18.996;2022-07-09T12:28:20;1.30;;;1.20;;
39356;SDS011;25077;50.302;18.996;2022-07-09T12:31:22;2.67;;;1.00;;
39356;SDS011;25077;50.302;18.996;2022-07-09T12:34:25;4.22;;;1.05;;
39356;SDS011;25077;50.302;18.996;2022-07-09T12:37:27;1.75;;;1.00;;
39356;SDS011;25077;50.302;18.996;2022-07-09T12:40:29;2.00;;;1.00;;
39356;SDS011;25077;50.302;18.996;2022-07-09T12:43:31;2.30;;;1.15;;
39356;SDS011;25077;50.302;18.996;2022-07-09T12:46:33;3.10;;;1.30;;
39356;SDS011;25077;50.302;18.996;2022-07-09T12:49:37;3.88;;;1.42;;
39356;SDS011;25077;50.302;18.996;2022-07-09T12:52:39;2.10;;;1.15;;
39356;SDS011;25077;50.302;18.996;2022-07-09T12:55:41;5.82;;;1.13;;
39356;SDS011;25077;50.302;18.996;2022-07-09T12:58:44;7.50;;;1.42;;
39356;SDS011;25077;50.302;18.996;2022-07-09T13:01:46;3.00;;;0.80;;
39356;SDS011;25077;50.302;18.996;2022-07-09T13:04:49;2.72;;;1.00;;
39356;SDS011;25077;50.302;18.996;2022-07-09T13:07:51;2.63;;;1.20;;
39356;SDS011;25077;50.302;18.996;2022-07-09T13:10:53;6.57;;;1.95;;
39356;SDS011;25077;50.302;18.996;2022-07-09T13:13:55;2.88;;;1.02;;
39356;SDS011;25077;50.302;18.996;2022-07-09T13:16:58;3.90;;;1.30;;
39356;SDS011;25077;50.302;18.996;2022-07-09T13:20:01;3.33;;;1.30;;
39356;SDS011;25077;50.302;18.996;2022-07-09T13:23:04;2.63;;;1.20;;
39356;SDS011;25077;50.302;18.996;2022-07-09T13:26:06;2.03;;;1.35;;
39356;SDS011;25077;50.302;18.996;2022-07-09T13:29:08;5.30;;;1.60;;
39356;SDS011;25077;50.302;18.996;2022-07-09T13:32:10;4.47;;;2.08;;
39356;SDS011;25077;50.302;18.996;2022-07-09T13:35:13;3.35;;;1.63;;
39356;SDS011;25077;50.302;18.996;2022-07-09T13:38:15;2.15;;;1.30;;
39356;SDS011;25077;50.302;18.996;2022-07-09T13:41:17;4.28;;;1.17;;
39356;SDS011;25077;50.302;18.996;2022-07-09T13:44:19;2.28;;;1.20;;
39356;SDS011;25077;50.302;18.996;2022-07-09T13:47:21;3.63;;;1.20;;
39356;SDS011;25077;50.302;18.996;2022-07-09T13:50:24;1.23;;;1.10;;
39356;SDS011;25077;50.302;18.996;2022-07-09T13:53:27;3.00;;;1.35;;
39356;SDS011;25077;50.302;18.996;2022-07-09T13:56:30;1.88;;;1.20;;
39356;SDS011;25077;50.302;18.996;2022-07-09T13:59:33;2.10;;;1.27;;
39356;SDS011;25077;50.302;18.996;2022-07-09T14:02:35;1.13;;;1.00;;
39356;SDS011;25077;50.302;18.996;2022-07-09T14:05:39;2.90;;;1.20;;
39356;SDS011;25077;50.302;18.996;2022-07-09T14:08:41;1.90;;;1.35;;
39356;SDS011;25077;50.302;18.996;2022-07-09T14:11:42;3.17;;;1.00;;
39356;SDS011;25077;50.302;18.996;2022-07-09T14:14:44;4.03;;;1.20;;
39356;SDS011;25077;50.302;18.996;2022-07-09T14:17:46;1.88;;;0.90;;
39356;SDS011;25077;50.302;18.996;2022-07-09T14:20:50;2.80;;;1.33;;
39356;SDS011;25077;50.302;18.996;2022-07-09T14:23:52;1.40;;;1.05;;
39356;SDS011;25077;50.302;18.996;2022-07-09T14:26:54;1.25;;;1.15;;
39356;SDS011;25077;50.302;18.996;2022-07-09T14:29:56;2.95;;;1.10;;
39356;SDS011;25077;50.302;18.996;2022-07-09T14:32:58;1.58;;;0.93;;
39356;SDS011;25077;50.302;18.996;2022-07-09T14:36:01;4.35;;;1.50;;
39356;SDS011;25077;50.302;18.996;2022-07-09T14:39:03;3.33;;;1.80;;
39356;SDS011;25077;50.302;18.996;2022-07-09T14:42:05;5.50;;;1.30;;
39356;SDS011;25077;50.302;18.996;2022-07-09T14:45:07;3.20;;;1.30;;
39356;SDS011;25077;50.302;18.996;2022-07-09T14:48:10;2.85;;;1.23;;
39356;SDS011;25077;50.302;18.996;2022-07-09T14:51:15;5.65;;;1.45;;
39356;SDS011;25077;50.302;18.996;2022-07-09T14:54:17;4.63;;;1.40;;
39356;SDS011;25077;50.302;18.996;2022-07-09T14:57:19;1.33;;;1.23;;
39356;SDS011;25077;50.302;18.996;2022-07-09T15:00:21;1.83;;;1.42;;
39356;SDS011;25077;50.302;18.996;2022-07-09T15:03:23;2.22;;;1.30;;
39356;SDS011;25077;50.302;18.996;2022-07-09T15:06:27;4.10;;;1.77;;
39356;SDS011;25077;50.302;18.996;2022-07-09T15:09:29;2.67;;;1.40;;
39356;SDS011;25077;50.302;18.996;2022-07-09T15:12:31;2.25;;;1.40;;
39356;SDS011;25077;50.302;18.996;2022-07-09T15:15:33;2.08;;;1.00;;
39356;SDS011;25077;50.302;18.996;2022-07-09T15:18:36;1.75;;;1.10;;
39356;SDS011;25077;50.302;18.996;2022-07-09T15:21:39;5.00;;;1.30;;
39356;SDS011;25077;50.302;18.996;2022-07-09T15:24:41;1.30;;;1.10;;
39356;SDS011;25077;50.302;18.996;2022-07-09T15:27:43;3.70;;;1.00;;
39356;SDS011;25077;50.302;18.996;2022-07-09T15:30:45;1.70;;;1.00;;
39356;SDS011;25077;50.302;18.996;2022-07-09T15:33:47;2.80;;;1.10;;
39356;SDS011;25077;50.302;18.996;2022-07-09T15:36:50;3.08;;;1.30;;
39356;SDS011;25077;50.302;18.996;2022-07-09T15:39:52;2.15;;;1.05;;
39356;SDS011;25077;50.302;18.996;2022-07-09T15:42:54;6.32;;;1.55;;
39356;SDS011;25077;50.302;18.996;2022-07-09T15:45:57;2.67;;;1.17;;
39356;SDS011;25077;50.302;18.996;2022-07-09T15:48:59;2.50;;;1.20;;
39356;SDS011;25077;50.302;18.996;2022-07-09T15:52:03;6.68;;;1.15;;
39356;SDS011;25077;50.302;18.996;2022-07-09T15:55:06;8.25;;;1.33;;
39356;SDS011;25077;50.302;18.996;2022-07-09T15:58:09;1.88;;;1.25;;
39356;SDS011;25077;50.302;18.996;2022-07-09T16:01:11;4.45;;;1.23;;
39356;SDS011;25077;50.302;18.996;2022-07-09T16:04:13;1.38;;;1.20;;
39356;SDS011;25077;50.302;18.996;2022-07-09T16:07:17;3.93;;;0.93;;
39356;SDS011;25077;50.302;18.996;2022-07-09T16:10:19;4.35;;;1.65;;
39356;SDS011;25077;50.302;18.996;2022-07-09T16:13:21;1.67;;;1.17;;
39356;SDS011;25077;50.302;18.996;2022-07-09T16:16:22;2.00;;;1.30;;
39356;SDS011;25077;50.302;18.996;2022-07-09T16:19:24;5.37;;;1.33;;
39356;SDS011;25077;50.302;18.996;2022-07-09T16:22:28;2.33;;;1.30;;
39356;SDS011;25077;50.302;18.996;2022-07-09T16:25:30;3.10;;;1.30;;
39356;SDS011;25077;50.302;18.996;2022-07-09T16:28:32;3.33;;;1.10;;
39356;SDS011;25077;50.302;18.996;2022-07-09T16:31:34;1.67;;;1.13;;
39356;SDS011;25077;50.302;18.996;2022-07-09T16:34:36;4.20;;;1.30;;
39356;SDS011;25077;50.302;18.996;2022-07-09T16:37:40;2.07;;;1.00;;
39356;SDS011;25077;50.302;18.996;2022-07-09T16:40:43;2.50;;;1.10;;
39356;SDS011;25077;50.302;18.996;2022-07-09T16:43:45;1.47;;;1.10;;
39356;SDS011;25077;50.302;18.996;2022-07-09T16:46:47;1.37;;;0.90;;
39356;SDS011;25077;50.302;18.996;2022-07-09T16:49:49;2.60;;;1.17;;
39356;SDS011;25077;50.302;18.996;2022-07-09T16:52:53;2.03;;;1.10;;
39356;SDS011;25077;50.302;18.996;2022-07-09T16:55:55;3.97;;;1.10;;
39356;SDS011;25077;50.302;18.996;2022-07-09T16:58:57;1.97;;;1.27;;
39356;SDS011;25077;50.302;18.996;2022-07-09T17:01:59;2.83;;;1.23;;
39356;SDS011;25077;50.302;18.996;2022-07-09T17:05:02;3.77;;;1.10;;
39356;SDS011;25077;50.302;18.996;2022-07-09T17:08:06;1.63;;;0.90;;
39356;SDS011;25077;50.302;18.996;2022-07-09T17:11:08;2.57;;;1.30;;
39356;SDS011;25077;50.302;18.996;2022-07-09T17:14:10;3.83;;;1.20;;
39356;SDS011;25077;50.302;18.996;2022-07-09T17:17:12;1.50;;;1.10;;
39356;SDS011;25077;50.302;18.996;2022-07-09T17:20:14;2.77;;;1.10;;
39356;SDS011;25077;50.302;18.996;2022-07-09T17:23:18;3.83;;;1.40;;
39356;SDS011;25077;50.302;18.996;2022-07-09T17:26:20;5.03;;;1.23;;
39356;SDS011;25077;50.302;18.996;2022-07-09T17:29:22;3.03;;;1.17;;
39356;SDS011;25077;50.302;18.996;2022-07-09T17:32:24;3.17;;;1.30;;
39356;SDS011;25077;50.302;18.996;2022-07-09T17:35:27;1.90;;;1.20;;
39356;SDS011;25077;50.302;18.996;2022-07-09T17:38:30;6.10;;;1.63;;
39356;SDS011;25077;50.302;18.996;2022-07-09T17:41:32;2.63;;;1.30;;
39356;SDS011;25077;50.302;18.996;2022-07-09T17:44:34;4.40;;;1.70;;
39356;SDS011;25077;50.302;18.996;2022-07-09T17:47:36;3.63;;;1.40;;
39356;SDS011;25077;50.302;18.996;2022-07-09T17:50:38;5.80;;;1.30;;
39356;SDS011;25077;50.302;18.996;2022-07-09T17:53:42;5.33;;;1.47;;
39356;SDS011;25077;50.302;18.996;2022-07-09T17:56:43;2.30;;;1.50;;
39356;SDS011;25077;50.302;18.996;2022-07-09T17:59:45;2.17;;;1.30;;
39356;SDS011;25077;50.302;18.996;2022-07-09T18:02:47;3.20;;;1.37;;